sensor_id;sensor_type;location;lat;lon;timestamp;P1;durP1;ratioP1;P2;durP2;ratioP2
52724;SDS011;38621;52.830;6.914;2023-01-10T00:00:38;5.13;;;1.52;;
52724;SDS011;38621;52.830;6.914;2023-01-10T00:03:04;4.50;;;1.90;;
52724;SDS011;38621;52.830;6.914;2023-01-10T00:05:33;5.65;;;1.90;;
52724;SDS011;38621;52.830;6.914;2023-01-10T00:07:59;4.95;;;2.08;;
52724;SDS011;38621;52.830;6.914;2023-01-10T00:10:28;5.32;;;1.55;;
52724;SDS011;38621;52.830;6.914;2023-01-10T00:12:55;3.92;;;1.80;;
52724;SDS011;38621;52.830;6.914;2023-01-10T00:15:40;6.53;;;1.83;;
52724;SDS011;38621;52.830;6.914;2023-01-10T00:18:05;5.80;;;2.15;;
52724;SDS011;38621;52.830;6.914;2023-01-10T00:20:31;6.90;;;2.17;;
52724;SDS011;38621;52.830;6.914;2023-01-10T00:22:57;6.18;;;1.65;;
52724;SDS011;38621;52.830;6.914;2023-01-10T00:25:23;6.07;;;1.77;;
52724;SDS011;38621;52.830;6.914;2023-01-10T00:27:51;6.30;;;1.67;;
52724;SDS011;38621;52.830;6.914;2023-01-10T00:30:37;6.60;;;1.70;;
52724;SDS011;38621;52.830;6.914;2023-01-10T00:33:03;5.55;;;1.65;;
52724;SDS011;38621;52.830;6.914;2023-01-10T00:35:29;6.40;;;1.70;;
52724;SDS011;38621;52.830;6.914;2023-01-10T00:37:55;8.10;;;2.33;;
52724;SDS011;38621;52.830;6.914;2023-01-10T00:40:29;6.10;;;2.17;;
52724;SDS011;38621;52.830;6.914;2023-01-10T00:42:56;6.00;;;1.70;;
52724;SDS011;38621;52.830;6.914;2023-01-10T00:45:43;8.02;;;2.47;;
52724;SDS011;38621;52.830;6.914;2023-01-10T00:48:12;4.25;;;2.00;;
52724;SDS011;38621;52.830;6.914;2023-01-10T00:50:39;6.85;;;2.30;;
52724;SDS011;38621;52.830;6.914;2023-01-10T00:53:05;8.82;;;3.15;;
52724;SDS011;38621;52.830;6.914;2023-01-10T00:55:32;6.20;;;2.20;;
52724;SDS011;38621;52.830;6.914;2023-01-10T00:57:59;6.60;;;2.60;;
52724;SDS011;38621;52.830;6.914;2023-01-10T01:00:24;4.85;;;2.05;;
52724;SDS011;38621;52.830;6.914;2023-01-10T01:02:50;8.80;;;3.05;;
52724;SDS011;38621;52.830;6.914;2023-01-10T01:05:16;5.18;;;1.90;;
52724;SDS011;38621;52.830;6.914;2023-01-10T01:07:42;7.43;;;2.35;;
52724;SDS011;38621;52.830;6.914;2023-01-10T01:10:08;9.60;;;2.70;;
52724;SDS011;38621;52.830;6.914;2023-01-10T01:15:23;8.32;;;2.70;;
52724;SDS011;38621;52.830;6.914;2023-01-10T01:17:49;9.90;;;2.60;;
52724;SDS011;38621;52.830;6.914;2023-01-10T01:20:15;9.77;;;2.50;;
52724;SDS011;38621;52.830;6.914;2023-01-10T01:22:41;8.50;;;2.13;;
52724;SDS011;38621;52.830;6.914;2023-01-10T01:25:07;8.02;;;2.60;;
52724;SDS011;38621;52.830;6.914;2023-01-10T01:27:33;6.63;;;2.60;;
52724;SDS011;38621;52.830;6.914;2023-01-10T01:29:59;10.73;;;2.60;;
52724;SDS011;38621;52.830;6.914;2023-01-10T01:32:26;7.18;;;2.53;;
52724;SDS011;38621;52.830;6.914;2023-01-10T01:34:51;9.88;;;2.50;;
52724;SDS011;38621;52.830;6.914;2023-01-10T01:37:17;9.38;;;2.53;;
52724;SDS011;38621;52.830;6.914;2023-01-10T01:39:46;7.55;;;2.15;;
52724;SDS011;38621;52.830;6.914;2023-01-10T01:42:26;6.55;;;2.40;;
52724;SDS011;38621;52.830;6.914;2023-01-10T01:45:19;6.53;;;2.53;;
52724;SDS011;38621;52.830;6.914;2023-01-10T01:48:06;7.18;;;2.58;;
52724;SDS011;38621;52.830;6.914;2023-01-10T01:50:40;8.13;;;2.88;;
52724;SDS011;38621;52.830;6.914;2023-01-10T01:53:26;8.90;;;2.95;;
52724;SDS011;38621;52.830;6.914;2023-01-10T01:56:04;11.23;;;2.80;;
52724;SDS011;38621;52.830;6.914;2023-01-10T01:58:43;8.02;;;2.67;;
52724;SDS011;38621;52.830;6.914;2023-01-10T02:01:13;8.80;;;2.40;;
52724;SDS011;38621;52.830;6.914;2023-01-10T02:03:41;7.85;;;2.40;;
52724;SDS011;38621;52.830;6.914;2023-01-10T02:06:09;11.25;;;2.95;;
52724;SDS011;38621;52.830;6.914;2023-01-10T02:08:36;7.03;;;2.60;;
52724;SDS011;38621;52.830;6.914;2023-01-10T02:11:08;8.73;;;3.08;;
52724;SDS011;38621;52.830;6.914;2023-01-10T02:13:37;6.45;;;2.20;;
52724;SDS011;38621;52.830;6.914;2023-01-10T02:16:05;5.75;;;3.22;;
52724;SDS011;38621;52.830;6.914;2023-01-10T02:18:31;7.78;;;2.30;;
52724;SDS011;38621;52.830;6.914;2023-01-10T02:26:44;10.07;;;2.92;;
52724;SDS011;38621;52.830;6.914;2023-01-10T02:45:49;9.55;;;3.13;;
52724;SDS011;38621;52.830;6.914;2023-01-10T02:48:55;5.57;;;2.10;;
52724;SDS011;38621;52.830;6.914;2023-01-10T02:51:21;8.82;;;2.45;;
52724;SDS011;38621;52.830;6.914;2023-01-10T03:09:51;7.72;;;2.42;;
52724;SDS011;38621;52.830;6.914;2023-01-10T03:12:43;8.18;;;3.08;;
52724;SDS011;38621;52.830;6.914;2023-01-10T03:17:43;7.13;;;2.35;;
52724;SDS011;38621;52.830;6.914;2023-01-10T03:20:13;9.27;;;2.85;;
52724;SDS011;38621;52.830;6.914;2023-01-10T03:22:41;12.55;;;3.17;;
52724;SDS011;38621;52.830;6.914;2023-01-10T03:25:08;9.77;;;2.60;;
52724;SDS011;38621;52.830;6.914;2023-01-10T03:27:46;4.50;;;2.40;;
52724;SDS011;38621;52.830;6.914;2023-01-10T03:33:04;6.63;;;2.47;;
52724;SDS011;38621;52.830;6.914;2023-01-10T03:35:34;11.35;;;2.78;;
52724;SDS011;38621;52.830;6.914;2023-01-10T03:38:32;8.98;;;2.20;;
52724;SDS011;38621;52.830;6.914;2023-01-10T03:43:51;6.38;;;1.98;;
52724;SDS011;38621;52.830;6.914;2023-01-10T03:46:45;8.75;;;2.80;;
52724;SDS011;38621;52.830;6.914;2023-01-10T03:49:17;8.45;;;2.22;;
52724;SDS011;38621;52.830;6.914;2023-01-10T03:51:46;8.25;;;2.17;;
52724;SDS011;38621;52.830;6.914;2023-01-10T03:54:14;6.28;;;1.90;;
52724;SDS011;38621;52.830;6.914;2023-01-10T03:56:47;6.68;;;2.30;;
52724;SDS011;38621;52.830;6.914;2023-01-10T03:59:24;5.10;;;2.45;;
52724;SDS011;38621;52.830;6.914;2023-01-10T04:01:51;6.30;;;2.90;;
52724;SDS011;38621;52.830;6.914;2023-01-10T04:04:17;6.93;;;2.25;;
52724;SDS011;38621;52.830;6.914;2023-01-10T04:06:43;8.07;;;2.05;;
52724;SDS011;38621;52.830;6.914;2023-01-10T04:09:09;8.45;;;2.72;;
52724;SDS011;38621;52.830;6.914;2023-01-10T04:11:35;9.93;;;2.50;;
52724;SDS011;38621;52.830;6.914;2023-01-10T04:14:01;11.63;;;2.92;;
52724;SDS011;38621;52.830;6.914;2023-01-10T04:16:26;8.85;;;3.05;;
52724;SDS011;38621;52.830;6.914;2023-01-10T04:18:52;7.28;;;2.58;;
52724;SDS011;38621;52.830;6.914;2023-01-10T04:21:18;5.25;;;2.10;;
52724;SDS011;38621;52.830;6.914;2023-01-10T04:23:44;7.20;;;2.20;;
52724;SDS011;38621;52.830;6.914;2023-01-10T04:26:09;9.80;;;2.50;;
52724;SDS011;38621;52.830;6.914;2023-01-10T04:28:35;6.88;;;2.33;;
52724;SDS011;38621;52.830;6.914;2023-01-10T04:31:01;8.75;;;2.72;;
52724;SDS011;38621;52.830;6.914;2023-01-10T04:33:27;9.32;;;2.67;;
52724;SDS011;38621;52.830;6.914;2023-01-10T04:35:53;6.03;;;2.60;;
52724;SDS011;38621;52.830;6.914;2023-01-10T04:38:19;10.50;;;3.38;;
52724;SDS011;38621;52.830;6.914;2023-01-10T04:40:50;6.47;;;2.13;;
52724;SDS011;38621;52.830;6.914;2023-01-10T04:43:20;7.57;;;2.38;;
52724;SDS011;38621;52.830;6.914;2023-01-10T04:45:47;8.02;;;2.08;;
52724;SDS011;38621;52.830;6.914;2023-01-10T04:48:13;6.63;;;2.20;;
52724;SDS011;38621;52.830;6.914;2023-01-10T04:50:38;7.07;;;2.30;;
52724;SDS011;38621;52.830;6.914;2023-01-10T04:53:04;8.57;;;2.30;;
52724;SDS011;38621;52.830;6.914;2023-01-10T04:55:31;8.57;;;2.25;;
52724;SDS011;38621;52.830;6.914;2023-01-10T04:57:57;7.63;;;2.15;;
52724;SDS011;38621;52.830;6.914;2023-01-10T05:00:23;7.10;;;2.42;;
52724;SDS011;38621;52.830;6.914;2023-01-10T05:02:53;7.18;;;2.25;;
52724;SDS011;38621;52.830;6.914;2023-01-10T05:05:20;10.52;;;2.67;;
52724;SDS011;38621;52.830;6.914;2023-01-10T05:07:48;11.65;;;2.42;;
52724;SDS011;38621;52.830;6.914;2023-01-10T05:10:15;8.02;;;2.83;;
52724;SDS011;38621;52.830;6.914;2023-01-10T05:12:40;9.05;;;3.25;;
52724;SDS011;38621;52.830;6.914;2023-01-10T05:15:06;10.52;;;2.55;;
52724;SDS011;38621;52.830;6.914;2023-01-10T05:17:32;9.43;;;2.40;;
52724;SDS011;38621;52.830;6.914;2023-01-10T05:19:58;11.05;;;3.08;;
52724;SDS011;38621;52.830;6.914;2023-01-10T05:22:24;9.23;;;2.33;;
52724;SDS011;38621;52.830;6.914;2023-01-10T05:24:49;7.38;;;3.03;;
52724;SDS011;38621;52.830;6.914;2023-01-10T05:27:15;8.52;;;2.40;;
52724;SDS011;38621;52.830;6.914;2023-01-10T05:29:41;11.07;;;2.85;;
52724;SDS011;38621;52.830;6.914;2023-01-10T05:32:07;6.45;;;2.20;;
52724;SDS011;38621;52.830;6.914;2023-01-10T05:34:33;9.57;;;2.92;;
52724;SDS011;38621;52.830;6.914;2023-01-10T05:36:58;8.93;;;2.95;;
52724;SDS011;38621;52.830;6.914;2023-01-10T05:39:24;13.77;;;3.40;;
52724;SDS011;38621;52.830;6.914;2023-01-10T05:41:50;9.00;;;2.60;;
52724;SDS011;38621;52.830;6.914;2023-01-10T05:44:16;8.43;;;2.45;;
52724;SDS011;38621;52.830;6.914;2023-01-10T05:46:41;8.45;;;2.88;;
52724;SDS011;38621;52.830;6.914;2023-01-10T05:49:07;13.70;;;2.92;;
52724;SDS011;38621;52.830;6.914;2023-01-10T05:51:33;8.45;;;2.85;;
52724;SDS011;38621;52.830;6.914;2023-01-10T05:53:59;15.55;;;4.38;;
52724;SDS011;38621;52.830;6.914;2023-01-10T05:56:25;9.13;;;3.45;;
52724;SDS011;38621;52.830;6.914;2023-01-10T05:58:51;8.63;;;2.97;;
52724;SDS011;38621;52.830;6.914;2023-01-10T06:01:16;12.60;;;3.13;;
52724;SDS011;38621;52.830;6.914;2023-01-10T06:03:42;9.63;;;3.25;;
52724;SDS011;38621;52.830;6.914;2023-01-10T06:06:08;10.85;;;2.70;;
52724;SDS011;38621;52.830;6.914;2023-01-10T06:08:34;10.20;;;3.60;;
52724;SDS011;38621;52.830;6.914;2023-01-10T06:11:04;13.23;;;3.00;;
52724;SDS011;38621;52.830;6.914;2023-01-10T06:13:30;7.78;;;2.85;;
52724;SDS011;38621;52.830;6.914;2023-01-10T06:15:55;10.35;;;3.65;;
52724;SDS011;38621;52.830;6.914;2023-01-10T06:18:21;6.82;;;2.80;;
52724;SDS011;38621;52.830;6.914;2023-01-10T06:20:47;12.90;;;3.05;;
52724;SDS011;38621;52.830;6.914;2023-01-10T06:23:12;12.35;;;3.30;;
52724;SDS011;38621;52.830;6.914;2023-01-10T06:25:38;11.50;;;3.80;;
52724;SDS011;38621;52.830;6.914;2023-01-10T06:28:09;12.50;;;3.22;;
52724;SDS011;38621;52.830;6.914;2023-01-10T06:30:37;9.38;;;2.92;;
52724;SDS011;38621;52.830;6.914;2023-01-10T06:33:06;7.68;;;3.15;;
52724;SDS011;38621;52.830;6.914;2023-01-10T06:35:33;10.52;;;4.00;;
52724;SDS011;38621;52.830;6.914;2023-01-10T06:38:00;8.32;;;3.25;;
52724;SDS011;38621;52.830;6.914;2023-01-10T06:40:27;9.10;;;3.20;;
52724;SDS011;38621;52.830;6.914;2023-01-10T06:42:53;8.82;;;3.00;;
52724;SDS011;38621;52.830;6.914;2023-01-10T06:45:19;10.52;;;3.15;;
52724;SDS011;38621;52.830;6.914;2023-01-10T06:47:44;9.52;;;3.83;;
52724;SDS011;38621;52.830;6.914;2023-01-10T06:50:11;17.23;;;4.70;;
52724;SDS011;38621;52.830;6.914;2023-01-10T06:52:37;7.53;;;2.85;;
52724;SDS011;38621;52.830;6.914;2023-01-10T06:55:03;7.25;;;2.60;;
52724;SDS011;38621;52.830;6.914;2023-01-10T06:57:29;8.10;;;2.95;;
52724;SDS011;38621;52.830;6.914;2023-01-10T06:59:59;10.90;;;3.55;;
52724;SDS011;38621;52.830;6.914;2023-01-10T07:02:26;10.32;;;3.08;;
52724;SDS011;38621;52.830;6.914;2023-01-10T07:04:52;9.25;;;2.83;;
52724;SDS011;38621;52.830;6.914;2023-01-10T07:07:18;10.18;;;3.20;;
52724;SDS011;38621;52.830;6.914;2023-01-10T07:09:43;11.95;;;2.75;;
52724;SDS011;38621;52.830;6.914;2023-01-10T07:12:10;13.90;;;3.22;;
52724;SDS011;38621;52.830;6.914;2023-01-10T07:14:36;10.23;;;3.28;;
52724;SDS011;38621;52.830;6.914;2023-01-10T07:17:01;12.20;;;2.88;;
52724;SDS011;38621;52.830;6.914;2023-01-10T07:19:27;7.22;;;2.60;;
52724;SDS011;38621;52.830;6.914;2023-01-10T07:21:53;10.00;;;3.00;;
52724;SDS011;38621;52.830;6.914;2023-01-10T07:24:19;7.38;;;2.78;;
52724;SDS011;38621;52.830;6.914;2023-01-10T07:26:44;12.60;;;3.10;;
52724;SDS011;38621;52.830;6.914;2023-01-10T07:29:10;8.77;;;2.50;;
52724;SDS011;38621;52.830;6.914;2023-01-10T07:31:36;6.97;;;2.63;;
52724;SDS011;38621;52.830;6.914;2023-01-10T07:34:01;13.75;;;2.78;;
52724;SDS011;38621;52.830;6.914;2023-01-10T07:36:27;8.20;;;2.60;;
52724;SDS011;38621;52.830;6.914;2023-01-10T07:38:53;10.48;;;3.25;;
52724;SDS011;38621;52.830;6.914;2023-01-10T07:41:19;10.13;;;3.03;;
52724;SDS011;38621;52.830;6.914;2023-01-10T07:43:45;9.43;;;3.17;;
52724;SDS011;38621;52.830;6.914;2023-01-10T07:46:10;10.00;;;3.75;;
52724;SDS011;38621;52.830;6.914;2023-01-10T07:48:36;10.75;;;3.25;;
52724;SDS011;38621;52.830;6.914;2023-01-10T07:51:03;8.57;;;3.22;;
52724;SDS011;38621;52.830;6.914;2023-01-10T07:53:29;8.30;;;3.42;;
52724;SDS011;38621;52.830;6.914;2023-01-10T07:55:59;10.82;;;3.33;;
52724;SDS011;38621;52.830;6.914;2023-01-10T07:58:27;8.23;;;2.65;;
52724;SDS011;38621;52.830;6.914;2023-01-10T08:00:59;9.30;;;2.65;;
52724;SDS011;38621;52.830;6.914;2023-01-10T08:03:27;10.43;;;3.70;;
52724;SDS011;38621;52.830;6.914;2023-01-10T08:05:57;10.50;;;3.47;;
52724;SDS011;38621;52.830;6.914;2023-01-10T08:08:36;9.73;;;3.35;;
52724;SDS011;38621;52.830;6.914;2023-01-10T08:11:03;11.40;;;3.45;;
52724;SDS011;38621;52.830;6.914;2023-01-10T08:13:29;8.57;;;3.35;;
52724;SDS011;38621;52.830;6.914;2023-01-10T08:15:55;10.98;;;3.85;;
52724;SDS011;38621;52.830;6.914;2023-01-10T08:18:22;12.57;;;3.47;;
52724;SDS011;38621;52.830;6.914;2023-01-10T08:20:51;8.50;;;3.20;;
52724;SDS011;38621;52.830;6.914;2023-01-10T08:23:18;8.43;;;3.15;;
52724;SDS011;38621;52.830;6.914;2023-01-10T08:25:44;10.35;;;3.10;;
52724;SDS011;38621;52.830;6.914;2023-01-10T08:28:11;8.02;;;3.00;;
52724;SDS011;38621;52.830;6.914;2023-01-10T08:30:37;10.60;;;3.50;;
52724;SDS011;38621;52.830;6.914;2023-01-10T08:33:03;12.57;;;3.45;;
52724;SDS011;38621;52.830;6.914;2023-01-10T08:35:30;8.77;;;2.70;;
52724;SDS011;38621;52.830;6.914;2023-01-10T08:38:00;8.57;;;2.83;;
52724;SDS011;38621;52.830;6.914;2023-01-10T08:40:26;10.35;;;3.67;;
52724;SDS011;38621;52.830;6.914;2023-01-10T08:42:56;13.13;;;3.80;;
52724;SDS011;38621;52.830;6.914;2023-01-10T08:45:23;13.05;;;3.00;;
52724;SDS011;38621;52.830;6.914;2023-01-10T08:47:49;13.77;;;3.60;;
52724;SDS011;38621;52.830;6.914;2023-01-10T08:50:14;10.57;;;3.00;;
52724;SDS011;38621;52.830;6.914;2023-01-10T08:52:40;9.90;;;3.05;;
52724;SDS011;38621;52.830;6.914;2023-01-10T08:55:06;14.13;;;3.17;;
52724;SDS011;38621;52.830;6.914;2023-01-10T08:57:32;10.68;;;2.92;;
52724;SDS011;38621;52.830;6.914;2023-01-10T08:59:58;10.00;;;3.42;;
52724;SDS011;38621;52.830;6.914;2023-01-10T09:02:24;12.63;;;2.70;;
52724;SDS011;38621;52.830;6.914;2023-01-10T09:04:49;11.75;;;3.38;;
52724;SDS011;38621;52.830;6.914;2023-01-10T09:07:15;8.40;;;3.60;;
52724;SDS011;38621;52.830;6.914;2023-01-10T09:09:41;14.75;;;3.40;;
52724;SDS011;38621;52.830;6.914;2023-01-10T09:12:06;11.10;;;3.50;;
52724;SDS011;38621;52.830;6.914;2023-01-10T09:14:52;8.60;;;2.70;;
52724;SDS011;38621;52.830;6.914;2023-01-10T09:17:18;8.05;;;3.05;;
52724;SDS011;38621;52.830;6.914;2023-01-10T09:19:44;11.23;;;3.13;;
52724;SDS011;38621;52.830;6.914;2023-01-10T09:22:09;9.63;;;2.95;;
52724;SDS011;38621;52.830;6.914;2023-01-10T09:24:35;9.73;;;3.22;;
52724;SDS011;38621;52.830;6.914;2023-01-10T09:27:05;11.20;;;2.65;;
52724;SDS011;38621;52.830;6.914;2023-01-10T09:29:31;13.25;;;3.00;;
52724;SDS011;38621;52.830;6.914;2023-01-10T09:31:57;12.15;;;3.45;;
52724;SDS011;38621;52.830;6.914;2023-01-10T09:34:23;7.72;;;3.20;;
52724;SDS011;38621;52.830;6.914;2023-01-10T09:36:49;7.90;;;2.60;;
52724;SDS011;38621;52.830;6.914;2023-01-10T09:39:14;10.82;;;3.33;;
52724;SDS011;38621;52.830;6.914;2023-01-10T09:52:30;11.18;;;3.35;;
52724;SDS011;38621;52.830;6.914;2023-01-10T09:55:02;10.93;;;3.30;;
52724;SDS011;38621;52.830;6.914;2023-01-10T09:57:45;8.77;;;3.25;;
52724;SDS011;38621;52.830;6.914;2023-01-10T10:00:16;13.23;;;3.70;;
52724;SDS011;38621;52.830;6.914;2023-01-10T10:02:46;10.68;;;3.63;;
52724;SDS011;38621;52.830;6.914;2023-01-10T10:07:53;11.43;;;4.32;;
52724;SDS011;38621;52.830;6.914;2023-01-10T10:10:22;9.85;;;3.88;;
52724;SDS011;38621;52.830;6.914;2023-01-10T10:12:55;10.07;;;4.20;;
52724;SDS011;38621;52.830;6.914;2023-01-10T10:15:28;13.82;;;3.83;;
52724;SDS011;38621;52.830;6.914;2023-01-10T10:18:01;10.85;;;4.72;;
52724;SDS011;38621;52.830;6.914;2023-01-10T10:36:52;10.90;;;4.72;;
52724;SDS011;38621;52.830;6.914;2023-01-10T10:39:35;15.30;;;4.60;;
52724;SDS011;38621;52.830;6.914;2023-01-10T10:42:10;10.23;;;4.55;;
52724;SDS011;38621;52.830;6.914;2023-01-10T10:44:39;14.98;;;4.65;;
52724;SDS011;38621;52.830;6.914;2023-01-10T10:47:19;10.68;;;4.45;;
52724;SDS011;38621;52.830;6.914;2023-01-10T10:53:03;10.13;;;3.88;;
52724;SDS011;38621;52.830;6.914;2023-01-10T10:55:34;15.70;;;5.40;;
52724;SDS011;38621;52.830;6.914;2023-01-10T10:58:01;16.77;;;5.20;;
52724;SDS011;38621;52.830;6.914;2023-01-10T11:00:29;13.80;;;4.50;;
52724;SDS011;38621;52.830;6.914;2023-01-10T11:03:02;16.92;;;4.32;;
52724;SDS011;38621;52.830;6.914;2023-01-10T11:05:42;10.10;;;4.68;;
52724;SDS011;38621;52.830;6.914;2023-01-10T11:08:11;15.38;;;4.50;;
52724;SDS011;38621;52.830;6.914;2023-01-10T11:10:41;13.25;;;4.95;;
52724;SDS011;38621;52.830;6.914;2023-01-10T11:15:49;10.70;;;4.20;;
52724;SDS011;38621;52.830;6.914;2023-01-10T11:18:20;11.25;;;4.88;;
52724;SDS011;38621;52.830;6.914;2023-01-10T11:23:48;15.93;;;5.07;;
52724;SDS011;38621;52.830;6.914;2023-01-10T11:26:26;14.88;;;5.05;;
52724;SDS011;38621;52.830;6.914;2023-01-10T11:29:02;11.90;;;4.10;;
52724;SDS011;38621;52.830;6.914;2023-01-10T11:31:39;9.35;;;3.67;;
52724;SDS011;38621;52.830;6.914;2023-01-10T11:34:07;12.75;;;3.83;;
52724;SDS011;38621;52.830;6.914;2023-01-10T11:39:23;9.82;;;2.90;;
52724;SDS011;38621;52.830;6.914;2023-01-10T11:41:49;10.93;;;2.50;;
52724;SDS011;38621;52.830;6.914;2023-01-10T11:44:27;12.05;;;3.70;;
52724;SDS011;38621;52.830;6.914;2023-01-10T11:47:03;8.95;;;3.20;;
52724;SDS011;38621;52.830;6.914;2023-01-10T11:49:36;8.65;;;3.63;;
52724;SDS011;38621;52.830;6.914;2023-01-10T11:52:04;6.82;;;2.45;;
52724;SDS011;38621;52.830;6.914;2023-01-10T11:54:44;8.35;;;2.30;;
52724;SDS011;38621;52.830;6.914;2023-01-10T11:57:15;12.68;;;3.58;;
52724;SDS011;38621;52.830;6.914;2023-01-10T11:59:54;10.20;;;3.05;;
52724;SDS011;38621;52.830;6.914;2023-01-10T12:04:50;6.78;;;3.22;;
52724;SDS011;38621;52.830;6.914;2023-01-10T12:07:18;9.57;;;3.75;;
52724;SDS011;38621;52.830;6.914;2023-01-10T12:09:52;11.80;;;3.10;;
52724;SDS011;38621;52.830;6.914;2023-01-10T12:14:46;7.80;;;2.88;;
52724;SDS011;38621;52.830;6.914;2023-01-10T12:17:34;11.20;;;3.40;;
52724;SDS011;38621;52.830;6.914;2023-01-10T12:20:01;9.57;;;3.15;;
52724;SDS011;38621;52.830;6.914;2023-01-10T12:22:44;12.20;;;3.65;;
52724;SDS011;38621;52.830;6.914;2023-01-10T12:28:29;14.15;;;3.28;;
52724;SDS011;38621;52.830;6.914;2023-01-10T12:30:55;14.38;;;4.88;;
52724;SDS011;38621;52.830;6.914;2023-01-10T12:33:25;8.18;;;3.25;;
52724;SDS011;38621;52.830;6.914;2023-01-10T12:36:11;7.40;;;3.78;;
52724;SDS011;38621;52.830;6.914;2023-01-10T12:39:02;9.98;;;2.85;;
52724;SDS011;38621;52.830;6.914;2023-01-10T12:44:34;11.02;;;2.78;;
52724;SDS011;38621;52.830;6.914;2023-01-10T12:47:09;9.48;;;2.55;;
52724;SDS011;38621;52.830;6.914;2023-01-10T12:52:41;11.82;;;2.90;;
52724;SDS011;38621;52.830;6.914;2023-01-10T12:55:16;8.25;;;3.15;;
52724;SDS011;38621;52.830;6.914;2023-01-10T12:57:45;7.82;;;2.60;;
52724;SDS011;38621;52.830;6.914;2023-01-10T13:00:20;17.08;;;3.58;;
52724;SDS011;38621;52.830;6.914;2023-01-10T13:03:09;7.97;;;2.70;;
52724;SDS011;38621;52.830;6.914;2023-01-10T13:05:38;11.32;;;2.80;;
52724;SDS011;38621;52.830;6.914;2023-01-10T13:08:06;8.82;;;2.90;;
52724;SDS011;38621;52.830;6.914;2023-01-10T13:10:37;10.40;;;3.65;;
52724;SDS011;38621;52.830;6.914;2023-01-10T13:13:17;8.93;;;3.10;;
52724;SDS011;38621;52.830;6.914;2023-01-10T13:18:28;11.88;;;3.47;;
52724;SDS011;38621;52.830;6.914;2023-01-10T13:21:02;7.43;;;3.08;;
52724;SDS011;38621;52.830;6.914;2023-01-10T13:23:30;9.60;;;2.72;;
52724;SDS011;38621;52.830;6.914;2023-01-10T13:26:02;10.00;;;3.10;;
52724;SDS011;38621;52.830;6.914;2023-01-10T13:28:33;13.13;;;3.55;;
52724;SDS011;38621;52.830;6.914;2023-01-10T13:31:23;6.57;;;2.65;;
52724;SDS011;38621;52.830;6.914;2023-01-10T13:34:04;8.95;;;3.40;;
52724;SDS011;38621;52.830;6.914;2023-01-10T13:39:25;7.50;;;3.05;;
52724;SDS011;38621;52.830;6.914;2023-01-10T13:52:54;12.50;;;3.72;;
52724;SDS011;38621;52.830;6.914;2023-01-10T14:01:20;9.77;;;3.25;;
52724;SDS011;38621;52.830;6.914;2023-01-10T14:04:19;8.73;;;3.22;;
52724;SDS011;38621;52.830;6.914;2023-01-10T14:06:57;10.90;;;2.50;;
52724;SDS011;38621;52.830;6.914;2023-01-10T14:09:45;10.70;;;3.08;;
52724;SDS011;38621;52.830;6.914;2023-01-10T14:14:53;7.10;;;2.38;;
52724;SDS011;38621;52.830;6.914;2023-01-10T14:17:54;8.25;;;2.75;;
52724;SDS011;38621;52.830;6.914;2023-01-10T14:20:24;7.95;;;2.50;;
52724;SDS011;38621;52.830;6.914;2023-01-10T14:25:29;10.18;;;2.45;;
52724;SDS011;38621;52.830;6.914;2023-01-10T14:27:58;8.98;;;2.88;;
52724;SDS011;38621;52.830;6.914;2023-01-10T14:30:26;11.52;;;3.35;;
52724;SDS011;38621;52.830;6.914;2023-01-10T14:32:59;8.60;;;2.85;;
52724;SDS011;38621;52.830;6.914;2023-01-10T14:35:42;10.07;;;3.92;;
52724;SDS011;38621;52.830;6.914;2023-01-10T14:38:44;6.97;;;2.33;;
52724;SDS011;38621;52.830;6.914;2023-01-10T14:41:04;8.30;;;2.15;;
52724;SDS011;38621;52.830;6.914;2023-01-10T14:43:38;10.23;;;2.40;;
52724;SDS011;38621;52.830;6.914;2023-01-10T14:48:48;7.63;;;2.53;;
52724;SDS011;38621;52.830;6.914;2023-01-10T14:51:28;7.65;;;2.30;;
52724;SDS011;38621;52.830;6.914;2023-01-10T14:54:01;8.55;;;2.58;;
52724;SDS011;38621;52.830;6.914;2023-01-10T14:56:41;8.35;;;2.30;;
52724;SDS011;38621;52.830;6.914;2023-01-10T15:02:02;9.65;;;2.10;;
52724;SDS011;38621;52.830;6.914;2023-01-10T15:04:55;10.23;;;2.00;;
52724;SDS011;38621;52.830;6.914;2023-01-10T15:07:22;7.55;;;2.03;;
52724;SDS011;38621;52.830;6.914;2023-01-10T15:09:51;9.60;;;2.40;;
52724;SDS011;38621;52.830;6.914;2023-01-10T15:12:21;10.70;;;3.20;;
52724;SDS011;38621;52.830;6.914;2023-01-10T15:14:49;8.05;;;2.65;;
52724;SDS011;38621;52.830;6.914;2023-01-10T15:17:18;8.45;;;2.22;;
52724;SDS011;38621;52.830;6.914;2023-01-10T15:19:46;7.53;;;2.33;;
52724;SDS011;38621;52.830;6.914;2023-01-10T15:22:28;9.25;;;2.53;;
52724;SDS011;38621;52.830;6.914;2023-01-10T15:25:00;8.43;;;3.05;;
52724;SDS011;38621;52.830;6.914;2023-01-10T15:27:26;9.05;;;2.30;;
52724;SDS011;38621;52.830;6.914;2023-01-10T15:29:53;13.55;;;3.00;;
52724;SDS011;38621;52.830;6.914;2023-01-10T15:32:22;10.75;;;2.65;;
52724;SDS011;38621;52.830;6.914;2023-01-10T15:34:58;10.85;;;3.05;;
52724;SDS011;38621;52.830;6.914;2023-01-10T15:37:36;11.02;;;2.78;;
52724;SDS011;38621;52.830;6.914;2023-01-10T15:40:05;7.53;;;1.90;;
52724;SDS011;38621;52.830;6.914;2023-01-10T15:42:45;7.15;;;2.00;;
52724;SDS011;38621;52.830;6.914;2023-01-10T15:45:27;9.40;;;3.67;;
52724;SDS011;38621;52.830;6.914;2023-01-10T15:48:01;7.07;;;1.90;;
52724;SDS011;38621;52.830;6.914;2023-01-10T15:53:03;10.63;;;2.85;;
52724;SDS011;38621;52.830;6.914;2023-01-10T15:55:36;10.43;;;2.30;;
52724;SDS011;38621;52.830;6.914;2023-01-10T15:58:04;8.82;;;2.17;;
52724;SDS011;38621;52.830;6.914;2023-01-10T16:00:41;7.22;;;2.40;;
52724;SDS011;38621;52.830;6.914;2023-01-10T16:03:12;8.32;;;1.85;;
52724;SDS011;38621;52.830;6.914;2023-01-10T16:05:48;5.68;;;1.77;;
52724;SDS011;38621;52.830;6.914;2023-01-10T16:08:16;6.35;;;1.95;;
52724;SDS011;38621;52.830;6.914;2023-01-10T16:10:44;6.70;;;1.95;;
52724;SDS011;38621;52.830;6.914;2023-01-10T16:13:17;12.15;;;2.30;;
52724;SDS011;38621;52.830;6.914;2023-01-10T16:15:55;9.15;;;2.15;;
52724;SDS011;38621;52.830;6.914;2023-01-10T16:18:21;10.77;;;3.30;;
52724;SDS011;38621;52.830;6.914;2023-01-10T16:20:48;7.88;;;1.90;;
52724;SDS011;38621;52.830;6.914;2023-01-10T16:23:19;10.52;;;2.92;;
52724;SDS011;38621;52.830;6.914;2023-01-10T16:25:55;8.25;;;1.95;;
52724;SDS011;38621;52.830;6.914;2023-01-10T16:28:22;6.07;;;1.85;;
52724;SDS011;38621;52.830;6.914;2023-01-10T16:30:51;9.15;;;2.53;;
52724;SDS011;38621;52.830;6.914;2023-01-10T16:33:18;8.38;;;2.35;;
52724;SDS011;38621;52.830;6.914;2023-01-10T16:35:48;12.75;;;3.08;;
52724;SDS011;38621;52.830;6.914;2023-01-10T16:38:15;6.72;;;2.15;;
52724;SDS011;38621;52.830;6.914;2023-01-10T16:40:42;8.70;;;2.42;;
52724;SDS011;38621;52.830;6.914;2023-01-10T16:43:12;7.65;;;3.00;;
52724;SDS011;38621;52.830;6.914;2023-01-10T16:45:46;9.30;;;2.47;;
52724;SDS011;38621;52.830;6.914;2023-01-10T16:48:13;9.50;;;2.63;;
52724;SDS011;38621;52.830;6.914;2023-01-10T16:50:40;8.23;;;2.63;;
52724;SDS011;38621;52.830;6.914;2023-01-10T16:53:06;7.63;;;2.40;;
52724;SDS011;38621;52.830;6.914;2023-01-10T16:55:43;5.90;;;1.98;;
52724;SDS011;38621;52.830;6.914;2023-01-10T16:58:10;8.02;;;2.97;;
52724;SDS011;38621;52.830;6.914;2023-01-10T17:00:38;10.25;;;2.85;;
52724;SDS011;38621;52.830;6.914;2023-01-10T17:03:06;7.20;;;2.10;;
52724;SDS011;38621;52.830;6.914;2023-01-10T17:05:36;9.70;;;2.15;;
52724;SDS011;38621;52.830;6.914;2023-01-10T17:08:03;8.43;;;3.42;;
52724;SDS011;38621;52.830;6.914;2023-01-10T17:10:29;6.70;;;2.13;;
52724;SDS011;38621;52.830;6.914;2023-01-10T17:12:58;6.97;;;2.10;;
52724;SDS011;38621;52.830;6.914;2023-01-10T17:15:25;6.78;;;1.90;;
52724;SDS011;38621;52.830;6.914;2023-01-10T17:17:52;6.85;;;1.83;;
52724;SDS011;38621;52.830;6.914;2023-01-10T17:20:18;8.32;;;1.90;;